sensor_id;sensor_type;location;lat;lon;timestamp;P1;durP1;ratioP1;P2;durP2;ratioP2
7375;SDS011;3728;42.266;24.944;2023-05-21T00:02:04;7.40;;;6.53;;
7375;SDS011;3728;42.266;24.944;2023-05-21T00:04:37;8.53;;;6.13;;
7375;SDS011;3728;42.266;24.944;2023-05-21T00:07:06;8.10;;;6.47;;
7375;SDS011;3728;42.266;24.944;2023-05-21T00:09:34;9.30;;;6.07;;
7375;SDS011;3728;42.266;24.944;2023-05-21T00:12:04;10.17;;;6.30;;
7375;SDS011;3728;42.266;24.944;2023-05-21T00:14:33;9.17;;;6.67;;
7375;SDS011;3728;42.266;24.944;2023-05-21T00:17:01;8.60;;;6.27;;
7375;SDS011;3728;42.266;24.944;2023-05-21T00:19:28;9.23;;;5.90;;
7375;SDS011;3728;42.266;24.944;2023-05-21T00:21:58;6.93;;;6.10;;
7375;SDS011;3728;42.266;24.944;2023-05-21T00:24:29;8.77;;;5.77;;
7375;SDS011;3728;42.266;24.944;2023-05-21T00:26:56;7.60;;;5.83;;
7375;SDS011;3728;42.266;24.944;2023-05-21T00:29:24;11.80;;;6.10;;
7375;SDS011;3728;42.266;24.944;2023-05-21T00:31:53;9.90;;;5.83;;
7375;SDS011;3728;42.266;24.944;2023-05-21T00:34:23;9.67;;;6.20;;
7375;SDS011;3728;42.266;24.944;2023-05-21T00:36:52;8.60;;;5.90;;
7375;SDS011;3728;42.266;24.944;2023-05-21T00:39:21;7.77;;;5.93;;
7375;SDS011;3728;42.266;24.944;2023-05-21T00:41:48;11.87;;;6.00;;
7375;SDS011;3728;42.266;24.944;2023-05-21T00:44:16;10.83;;;6.40;;
7375;SDS011;3728;42.266;24.944;2023-05-21T00:46:45;6.63;;;5.90;;
7375;SDS011;3728;42.266;24.944;2023-05-21T00:49:14;8.43;;;6.13;;
7375;SDS011;3728;42.266;24.944;2023-05-21T00:51:42;11.77;;;6.20;;
7375;SDS011;3728;42.266;24.944;2023-05-21T00:54:10;8.17;;;6.60;;
7375;SDS011;3728;42.266;24.944;2023-05-21T00:56:38;9.20;;;6.60;;
7375;SDS011;3728;42.266;24.944;2023-05-21T00:59:06;9.83;;;6.30;;
7375;SDS011;3728;42.266;24.944;2023-05-21T01:01:33;9.03;;;6.23;;
7375;SDS011;3728;42.266;24.944;2023-05-21T01:04:02;8.27;;;5.93;;
7375;SDS011;3728;42.266;24.944;2023-05-21T01:06:30;9.70;;;6.30;;
7375;SDS011;3728;42.266;24.944;2023-05-21T01:09:01;13.17;;;6.33;;
7375;SDS011;3728;42.266;24.944;2023-05-21T01:11:38;14.17;;;6.33;;
7375;SDS011;3728;42.266;24.944;2023-05-21T01:14:09;13.10;;;6.03;;
7375;SDS011;3728;42.266;24.944;2023-05-21T01:16:40;11.60;;;5.80;;
7375;SDS011;3728;42.266;24.944;2023-05-21T01:19:12;8.13;;;6.03;;
7375;SDS011;3728;42.266;24.944;2023-05-21T01:21:49;10.73;;;5.83;;
7375;SDS011;3728;42.266;24.944;2023-05-21T01:24:23;8.67;;;5.53;;
7375;SDS011;3728;42.266;24.944;2023-05-21T01:26:53;8.97;;;5.70;;
7375;SDS011;3728;42.266;24.944;2023-05-21T01:29:21;8.50;;;5.37;;
7375;SDS011;3728;42.266;24.944;2023-05-21T01:31:54;8.77;;;5.60;;
7375;SDS011;3728;42.266;24.944;2023-05-21T01:37:40;9.00;;;4.57;;
7375;SDS011;3728;42.266;24.944;2023-05-21T01:43:41;10.77;;;5.90;;
7375;SDS011;3728;42.266;24.944;2023-05-21T01:46:13;6.27;;;5.07;;
7375;SDS011;3728;42.266;24.944;2023-05-21T01:48:45;6.67;;;5.07;;
7375;SDS011;3728;42.266;24.944;2023-05-21T01:51:16;6.73;;;5.40;;
7375;SDS011;3728;42.266;24.944;2023-05-21T01:53:44;9.93;;;5.30;;
7375;SDS011;3728;42.266;24.944;2023-05-21T01:56:11;8.50;;;5.43;;
7375;SDS011;3728;42.266;24.944;2023-05-21T01:58:41;8.93;;;5.63;;
7375;SDS011;3728;42.266;24.944;2023-05-21T02:01:09;8.97;;;5.37;;
7375;SDS011;3728;42.266;24.944;2023-05-21T02:03:37;12.33;;;5.70;;
7375;SDS011;3728;42.266;24.944;2023-05-21T02:06:05;9.10;;;5.87;;
7375;SDS011;3728;42.266;24.944;2023-05-21T02:08:32;8.87;;;5.40;;
7375;SDS011;3728;42.266;24.944;2023-05-21T02:11:00;8.33;;;5.40;;
7375;SDS011;3728;42.266;24.944;2023-05-21T02:13:28;10.13;;;5.67;;
7375;SDS011;3728;42.266;24.944;2023-05-21T02:15:55;10.00;;;5.77;;
7375;SDS011;3728;42.266;24.944;2023-05-21T02:18:23;11.20;;;5.33;;
7375;SDS011;3728;42.266;24.944;2023-05-21T02:20:51;8.73;;;4.90;;
7375;SDS011;3728;42.266;24.944;2023-05-21T02:23:19;9.10;;;5.47;;
7375;SDS011;3728;42.266;24.944;2023-05-21T02:25:46;9.07;;;5.40;;
7375;SDS011;3728;42.266;24.944;2023-05-21T02:28:14;10.23;;;5.20;;
7375;SDS011;3728;42.266;24.944;2023-05-21T02:30:41;10.33;;;5.20;;
7375;SDS011;3728;42.266;24.944;2023-05-21T02:33:09;6.60;;;4.80;;
7375;SDS011;3728;42.266;24.944;2023-05-21T02:35:39;11.37;;;5.03;;
7375;SDS011;3728;42.266;24.944;2023-05-21T02:38:07;8.93;;;5.23;;
7375;SDS011;3728;42.266;24.944;2023-05-21T02:40:35;11.40;;;5.10;;
7375;SDS011;3728;42.266;24.944;2023-05-21T02:43:03;6.97;;;5.23;;
7375;SDS011;3728;42.266;24.944;2023-05-21T02:45:31;7.00;;;5.60;;
7375;SDS011;3728;42.266;24.944;2023-05-21T02:47:59;6.63;;;4.93;;
7375;SDS011;3728;42.266;24.944;2023-05-21T02:50:29;8.80;;;5.43;;
7375;SDS011;3728;42.266;24.944;2023-05-21T02:52:58;8.80;;;5.00;;
7375;SDS011;3728;42.266;24.944;2023-05-21T02:55:26;9.97;;;5.47;;
7375;SDS011;3728;42.266;24.944;2023-05-21T02:57:54;8.67;;;5.33;;
7375;SDS011;3728;42.266;24.944;2023-05-21T03:00:21;6.90;;;5.00;;
7375;SDS011;3728;42.266;24.944;2023-05-21T03:02:49;10.43;;;5.47;;
7375;SDS011;3728;42.266;24.944;2023-05-21T03:05:16;9.03;;;5.50;;
7375;SDS011;3728;42.266;24.944;2023-05-21T03:07:44;8.63;;;5.40;;
7375;SDS011;3728;42.266;24.944;2023-05-21T03:10:13;13.47;;;5.80;;
7375;SDS011;3728;42.266;24.944;2023-05-21T03:12:41;5.77;;;5.17;;
7375;SDS011;3728;42.266;24.944;2023-05-21T03:15:10;8.97;;;5.77;;
7375;SDS011;3728;42.266;24.944;2023-05-21T03:17:40;9.30;;;5.37;;
7375;SDS011;3728;42.266;24.944;2023-05-21T03:20:10;9.63;;;5.33;;
7375;SDS011;3728;42.266;24.944;2023-05-21T03:22:42;5.87;;;5.10;;
7375;SDS011;3728;42.266;24.944;2023-05-21T03:25:11;6.17;;;5.30;;
7375;SDS011;3728;42.266;24.944;2023-05-21T03:27:38;9.33;;;5.47;;
7375;SDS011;3728;42.266;24.944;2023-05-21T03:30:20;8.60;;;5.93;;
7375;SDS011;3728;42.266;24.944;2023-05-21T03:33:07;11.43;;;5.77;;
7375;SDS011;3728;42.266;24.944;2023-05-21T03:35:36;9.10;;;5.50;;
7375;SDS011;3728;42.266;24.944;2023-05-21T03:38:04;9.33;;;5.57;;
7375;SDS011;3728;42.266;24.944;2023-05-21T03:40:32;11.17;;;5.97;;
7375;SDS011;3728;42.266;24.944;2023-05-21T03:43:00;6.60;;;5.90;;
7375;SDS011;3728;42.266;24.944;2023-05-21T03:45:28;14.87;;;5.80;;
7375;SDS011;3728;42.266;24.944;2023-05-21T03:48:18;10.93;;;5.97;;
7375;SDS011;3728;42.266;24.944;2023-05-21T03:50:45;11.77;;;5.70;;
7375;SDS011;3728;42.266;24.944;2023-05-21T03:53:13;7.33;;;5.77;;
7375;SDS011;3728;42.266;24.944;2023-05-21T03:55:41;9.40;;;5.57;;
7375;SDS011;3728;42.266;24.944;2023-05-21T03:58:09;11.67;;;6.03;;
7375;SDS011;3728;42.266;24.944;2023-05-21T04:00:37;9.07;;;5.57;;
7375;SDS011;3728;42.266;24.944;2023-05-21T04:03:05;7.53;;;5.63;;
7375;SDS011;3728;42.266;24.944;2023-05-21T04:05:33;9.03;;;5.80;;
7375;SDS011;3728;42.266;24.944;2023-05-21T04:08:00;10.00;;;6.50;;
7375;SDS011;3728;42.266;24.944;2023-05-21T04:10:28;14.53;;;6.50;;
7375;SDS011;3728;42.266;24.944;2023-05-21T04:12:56;13.40;;;6.67;;
7375;SDS011;3728;42.266;24.944;2023-05-21T04:15:24;8.50;;;6.87;;
7375;SDS011;3728;42.266;24.944;2023-05-21T04:17:54;10.20;;;6.30;;
7375;SDS011;3728;42.266;24.944;2023-05-21T04:20:22;8.93;;;6.80;;
7375;SDS011;3728;42.266;24.944;2023-05-21T04:22:49;9.40;;;6.13;;
7375;SDS011;3728;42.266;24.944;2023-05-21T04:25:17;11.00;;;6.40;;
7375;SDS011;3728;42.266;24.944;2023-05-21T04:27:47;13.00;;;6.53;;
7375;SDS011;3728;42.266;24.944;2023-05-21T04:30:15;8.90;;;6.07;;
7375;SDS011;3728;42.266;24.944;2023-05-21T04:32:45;7.60;;;6.10;;
7375;SDS011;3728;42.266;24.944;2023-05-21T04:35:13;10.33;;;6.07;;
7375;SDS011;3728;42.266;24.944;2023-05-21T04:37:41;15.03;;;5.43;;
7375;SDS011;3728;42.266;24.944;2023-05-21T04:40:12;13.63;;;5.50;;
7375;SDS011;3728;42.266;24.944;2023-05-21T04:42:50;10.37;;;5.20;;
7375;SDS011;3728;42.266;24.944;2023-05-21T04:45:20;8.37;;;5.40;;
7375;SDS011;3728;42.266;24.944;2023-05-21T04:47:51;11.93;;;5.13;;
7375;SDS011;3728;42.266;24.944;2023-05-21T04:50:18;9.17;;;5.33;;
7375;SDS011;3728;42.266;24.944;2023-05-21T04:52:47;8.13;;;5.43;;
7375;SDS011;3728;42.266;24.944;2023-05-21T04:55:14;12.17;;;5.07;;
7375;SDS011;3728;42.266;24.944;2023-05-21T04:57:45;11.53;;;5.33;;
7375;SDS011;3728;42.266;24.944;2023-05-21T05:00:13;5.23;;;4.73;;
7375;SDS011;3728;42.266;24.944;2023-05-21T05:02:43;10.67;;;5.10;;
7375;SDS011;3728;42.266;24.944;2023-05-21T05:05:11;6.37;;;5.07;;
7375;SDS011;3728;42.266;24.944;2023-05-21T05:07:39;6.07;;;4.70;;
7375;SDS011;3728;42.266;24.944;2023-05-21T05:10:07;7.63;;;5.53;;
7375;SDS011;3728;42.266;24.944;2023-05-21T05:12:35;10.13;;;5.60;;
7375;SDS011;3728;42.266;24.944;2023-05-21T05:15:03;7.90;;;5.30;;
7375;SDS011;3728;42.266;24.944;2023-05-21T05:17:31;8.60;;;5.47;;
7375;SDS011;3728;42.266;24.944;2023-05-21T05:19:59;10.47;;;5.77;;
7375;SDS011;3728;42.266;24.944;2023-05-21T05:22:27;11.87;;;5.63;;
7375;SDS011;3728;42.266;24.944;2023-05-21T05:24:55;8.60;;;5.40;;
7375;SDS011;3728;42.266;24.944;2023-05-21T05:27:22;10.97;;;6.87;;
7375;SDS011;3728;42.266;24.944;2023-05-21T05:29:53;7.67;;;5.90;;
7375;SDS011;3728;42.266;24.944;2023-05-21T05:32:21;14.03;;;8.33;;
7375;SDS011;3728;42.266;24.944;2023-05-21T05:34:49;14.57;;;9.47;;
7375;SDS011;3728;42.266;24.944;2023-05-21T05:37:16;13.83;;;7.40;;
7375;SDS011;3728;42.266;24.944;2023-05-21T05:39:44;11.27;;;8.07;;
7375;SDS011;3728;42.266;24.944;2023-05-21T05:42:12;16.60;;;6.10;;
7375;SDS011;3728;42.266;24.944;2023-05-21T05:44:40;10.27;;;5.50;;
7375;SDS011;3728;42.266;24.944;2023-05-21T05:47:07;10.03;;;4.83;;
7375;SDS011;3728;42.266;24.944;2023-05-21T05:49:37;10.40;;;6.53;;
7375;SDS011;3728;42.266;24.944;2023-05-21T05:52:05;22.93;;;10.43;;
7375;SDS011;3728;42.266;24.944;2023-05-21T05:54:32;36.83;;;21.07;;
7375;SDS011;3728;42.266;24.944;2023-05-21T05:57:00;33.73;;;19.10;;
7375;SDS011;3728;42.266;24.944;2023-05-21T05:59:27;24.27;;;13.30;;
7375;SDS011;3728;42.266;24.944;2023-05-21T06:01:58;17.17;;;10.13;;
7375;SDS011;3728;42.266;24.944;2023-05-21T06:04:26;13.50;;;9.27;;
7375;SDS011;3728;42.266;24.944;2023-05-21T06:06:56;16.10;;;9.37;;
7375;SDS011;3728;42.266;24.944;2023-05-21T06:09:24;19.47;;;9.80;;
7375;SDS011;3728;42.266;24.944;2023-05-21T06:11:51;19.53;;;9.47;;
7375;SDS011;3728;42.266;24.944;2023-05-21T06:14:19;24.60;;;10.63;;
7375;SDS011;3728;42.266;24.944;2023-05-21T06:16:47;22.27;;;10.60;;
7375;SDS011;3728;42.266;24.944;2023-05-21T06:19:15;21.00;;;9.13;;
7375;SDS011;3728;42.266;24.944;2023-05-21T06:21:42;9.67;;;7.27;;
7375;SDS011;3728;42.266;24.944;2023-05-21T06:24:10;17.87;;;9.83;;
7375;SDS011;3728;42.266;24.944;2023-05-21T06:26:38;13.43;;;7.70;;
7375;SDS011;3728;42.266;24.944;2023-05-21T06:29:06;15.97;;;7.47;;
7375;SDS011;3728;42.266;24.944;2023-05-21T06:31:33;19.20;;;8.20;;
7375;SDS011;3728;42.266;24.944;2023-05-21T06:34:01;16.57;;;9.47;;
7375;SDS011;3728;42.266;24.944;2023-05-21T06:36:31;12.37;;;8.07;;
7375;SDS011;3728;42.266;24.944;2023-05-21T06:38:58;21.73;;;8.00;;
7375;SDS011;3728;42.266;24.944;2023-05-21T06:41:26;14.80;;;6.80;;
7375;SDS011;3728;42.266;24.944;2023-05-21T06:43:57;7.27;;;4.47;;
7375;SDS011;3728;42.266;24.944;2023-05-21T06:46:40;12.17;;;4.60;;
7375;SDS011;3728;42.266;24.944;2023-05-21T06:49:09;21.30;;;5.40;;
7375;SDS011;3728;42.266;24.944;2023-05-21T06:51:40;23.20;;;6.97;;
7375;SDS011;3728;42.266;24.944;2023-05-21T06:54:09;12.43;;;6.63;;
7375;SDS011;3728;42.266;24.944;2023-05-21T06:56:39;8.47;;;6.13;;
7375;SDS011;3728;42.266;24.944;2023-05-21T06:59:07;12.40;;;6.10;;
7375;SDS011;3728;42.266;24.944;2023-05-21T07:01:36;11.23;;;7.13;;
7375;SDS011;3728;42.266;24.944;2023-05-21T07:04:09;8.37;;;5.77;;
7375;SDS011;3728;42.266;24.944;2023-05-21T07:06:38;11.23;;;6.43;;
7375;SDS011;3728;42.266;24.944;2023-05-21T07:09:06;10.73;;;6.73;;
7375;SDS011;3728;42.266;24.944;2023-05-21T07:11:35;12.60;;;5.67;;
7375;SDS011;3728;42.266;24.944;2023-05-21T07:14:03;10.30;;;4.73;;
7375;SDS011;3728;42.266;24.944;2023-05-21T07:16:33;16.27;;;5.63;;
7375;SDS011;3728;42.266;24.944;2023-05-21T07:19:01;9.57;;;4.97;;
7375;SDS011;3728;42.266;24.944;2023-05-21T07:21:29;12.70;;;5.77;;
7375;SDS011;3728;42.266;24.944;2023-05-21T07:23:58;10.53;;;5.27;;
7375;SDS011;3728;42.266;24.944;2023-05-21T07:26:26;12.80;;;7.07;;
7375;SDS011;3728;42.266;24.944;2023-05-21T07:28:54;12.83;;;6.13;;
7375;SDS011;3728;42.266;24.944;2023-05-21T07:31:21;11.93;;;5.27;;
7375;SDS011;3728;42.266;24.944;2023-05-21T07:33:51;16.93;;;5.40;;
7375;SDS011;3728;42.266;24.944;2023-05-21T07:36:22;7.80;;;5.40;;
7375;SDS011;3728;42.266;24.944;2023-05-21T07:38:53;47.47;;;8.27;;
7375;SDS011;3728;42.266;24.944;2023-05-21T07:41:21;8.97;;;5.30;;
7375;SDS011;3728;42.266;24.944;2023-05-21T07:43:49;7.87;;;5.17;;
7375;SDS011;3728;42.266;24.944;2023-05-21T07:46:17;14.27;;;5.40;;
7375;SDS011;3728;42.266;24.944;2023-05-21T07:48:50;14.53;;;6.67;;
7375;SDS011;3728;42.266;24.944;2023-05-21T07:51:18;8.80;;;7.77;;
7375;SDS011;3728;42.266;24.944;2023-05-21T07:53:46;16.07;;;6.63;;
7375;SDS011;3728;42.266;24.944;2023-05-21T07:56:17;13.63;;;6.30;;
7375;SDS011;3728;42.266;24.944;2023-05-21T07:58:45;8.40;;;5.93;;
7375;SDS011;3728;42.266;24.944;2023-05-21T08:01:14;14.30;;;6.17;;
7375;SDS011;3728;42.266;24.944;2023-05-21T08:03:42;21.53;;;6.73;;
7375;SDS011;3728;42.266;24.944;2023-05-21T08:06:10;11.30;;;5.47;;
7375;SDS011;3728;42.266;24.944;2023-05-21T08:08:39;9.97;;;5.40;;
7375;SDS011;3728;42.266;24.944;2023-05-21T08:11:07;19.03;;;6.30;;
7375;SDS011;3728;42.266;24.944;2023-05-21T08:13:35;15.23;;;5.90;;
7375;SDS011;3728;42.266;24.944;2023-05-21T08:16:05;11.40;;;5.23;;
7375;SDS011;3728;42.266;24.944;2023-05-21T08:18:32;9.47;;;4.97;;
7375;SDS011;3728;42.266;24.944;2023-05-21T08:21:00;9.63;;;5.30;;
7375;SDS011;3728;42.266;24.944;2023-05-21T08:23:28;12.97;;;5.37;;
7375;SDS011;3728;42.266;24.944;2023-05-21T08:25:57;9.13;;;4.63;;
7375;SDS011;3728;42.266;24.944;2023-05-21T08:28:25;10.50;;;5.40;;
7375;SDS011;3728;42.266;24.944;2023-05-21T08:31:17;8.27;;;4.70;;
7375;SDS011;3728;42.266;24.944;2023-05-21T08:33:49;12.73;;;5.10;;
7375;SDS011;3728;42.266;24.944;2023-05-21T08:36:27;14.27;;;5.10;;
7375;SDS011;3728;42.266;24.944;2023-05-21T08:39:00;7.10;;;4.53;;
7375;SDS011;3728;42.266;24.944;2023-05-21T08:41:34;8.57;;;4.57;;
7375;SDS011;3728;42.266;24.944;2023-05-21T08:44:04;10.43;;;4.47;;
7375;SDS011;3728;42.266;24.944;2023-05-21T08:46:39;8.60;;;4.30;;
7375;SDS011;3728;42.266;24.944;2023-05-21T08:49:11;9.67;;;5.00;;
7375;SDS011;3728;42.266;24.944;2023-05-21T08:51:39;7.53;;;4.97;;
7375;SDS011;3728;42.266;24.944;2023-05-21T08:54:08;10.43;;;4.50;;
7375;SDS011;3728;42.266;24.944;2023-05-21T08:56:39;9.60;;;4.83;;
7375;SDS011;3728;42.266;24.944;2023-05-21T08:59:15;8.27;;;4.57;;
7375;SDS011;3728;42.266;24.944;2023-05-21T09:01:45;7.03;;;4.73;;
7375;SDS011;3728;42.266;24.944;2023-05-21T09:04:23;11.17;;;5.07;;
7375;SDS011;3728;42.266;24.944;2023-05-21T09:06:54;9.27;;;4.70;;
7375;SDS011;3728;42.266;24.944;2023-05-21T09:09:48;6.93;;;4.23;;
7375;SDS011;3728;42.266;24.944;2023-05-21T09:12:39;10.13;;;4.33;;
7375;SDS011;3728;42.266;24.944;2023-05-21T09:15:07;9.47;;;4.47;;
7375;SDS011;3728;42.266;24.944;2023-05-21T09:17:36;9.80;;;4.03;;
7375;SDS011;3728;42.266;24.944;2023-05-21T09:20:23;7.10;;;3.90;;
7375;SDS011;3728;42.266;24.944;2023-05-21T09:23:02;19.30;;;4.60;;
7375;SDS011;3728;42.266;24.944;2023-05-21T09:25:32;12.67;;;4.13;;
7375;SDS011;3728;42.266;24.944;2023-05-21T09:28:12;8.90;;;3.93;;
7375;SDS011;3728;42.266;24.944;2023-05-21T09:30:51;6.47;;;3.33;;
7375;SDS011;3728;42.266;24.944;2023-05-21T09:33:26;7.20;;;3.33;;
7375;SDS011;3728;42.266;24.944;2023-05-21T09:35:57;4.90;;;3.23;;
7375;SDS011;3728;42.266;24.944;2023-05-21T09:38:26;5.33;;;2.97;;
7375;SDS011;3728;42.266;24.944;2023-05-21T09:40:55;8.20;;;3.57;;
7375;SDS011;3728;42.266;24.944;2023-05-21T09:43:25;4.00;;;3.33;;
7375;SDS011;3728;42.266;24.944;2023-05-21T09:45:54;9.33;;;3.77;;
7375;SDS011;3728;42.266;24.944;2023-05-21T09:48:31;4.93;;;2.83;;
7375;SDS011;3728;42.266;24.944;2023-05-21T09:51:12;8.20;;;3.37;;
7375;SDS011;3728;42.266;24.944;2023-05-21T09:53:43;13.33;;;4.17;;
7375;SDS011;3728;42.266;24.944;2023-05-21T09:56:21;16.93;;;4.10;;
7375;SDS011;3728;42.266;24.944;2023-05-21T09:58:55;8.37;;;3.53;;
7375;SDS011;3728;42.266;24.944;2023-05-21T10:01:30;7.87;;;3.33;;
7375;SDS011;3728;42.266;24.944;2023-05-21T10:04:06;7.73;;;3.33;;
7375;SDS011;3728;42.266;24.944;2023-05-21T10:06:40;6.03;;;3.17;;
7375;SDS011;3728;42.266;24.944;2023-05-21T10:09:12;5.80;;;3.70;;
7375;SDS011;3728;42.266;24.944;2023-05-21T10:11:44;7.55;;;3.58;;
7375;SDS011;3728;42.266;24.944;2023-05-21T10:14:20;9.27;;;3.30;;
7375;SDS011;3728;42.266;24.944;2023-05-21T10:16:51;6.90;;;2.83;;
7375;SDS011;3728;42.266;24.944;2023-05-21T10:19:20;5.20;;;2.80;;
7375;SDS011;3728;42.266;24.944;2023-05-21T10:21:52;10.60;;;2.90;;
7375;SDS011;3728;42.266;24.944;2023-05-21T10:24:22;4.70;;;2.75;;
7375;SDS011;3728;42.266;24.944;2023-05-21T10:26:51;4.50;;;3.15;;
7375;SDS011;3728;42.266;24.944;2023-05-21T10:29:19;4.97;;;2.85;;
7375;SDS011;3728;42.266;24.944;2023-05-21T10:31:48;7.82;;;3.40;;
7375;SDS011;3728;42.266;24.944;2023-05-21T10:34:19;4.25;;;2.47;;
7375;SDS011;3728;42.266;24.944;2023-05-21T10:36:50;7.20;;;3.30;;
7375;SDS011;3728;42.266;24.944;2023-05-21T10:39:22;8.77;;;3.50;;
7375;SDS011;3728;42.266;24.944;2023-05-21T10:56:52;5.20;;;3.42;;
7375;SDS011;3728;42.266;24.944;2023-05-21T10:59:44;3.17;;;2.70;;
7375;SDS011;3728;42.266;24.944;2023-05-21T11:02:14;5.40;;;2.97;;
7375;SDS011;3728;42.266;24.944;2023-05-21T11:04:45;4.45;;;3.00;;
7375;SDS011;3728;42.266;24.944;2023-05-21T11:07:17;7.03;;;3.13;;
7375;SDS011;3728;42.266;24.944;2023-05-21T11:09:50;4.88;;;2.95;;
7375;SDS011;3728;42.266;24.944;2023-05-21T11:12:17;7.28;;;3.58;;
7375;SDS011;3728;42.266;24.944;2023-05-21T11:14:57;6.65;;;3.60;;
7375;SDS011;3728;42.266;24.944;2023-05-21T11:17:39;5.60;;;3.50;;
7375;SDS011;3728;42.266;24.944;2023-05-21T11:20:10;4.82;;;2.88;;
7375;SDS011;3728;42.266;24.944;2023-05-21T11:22:42;8.32;;;3.22;;
7375;SDS011;3728;42.266;24.944;2023-05-21T11:25:12;11.30;;;3.97;;
7375;SDS011;3728;42.266;24.944;2023-05-21T11:27:42;4.50;;;2.80;;
7375;SDS011;3728;42.266;24.944;2023-05-21T11:30:16;5.13;;;3.00;;
7375;SDS011;3728;42.266;24.944;2023-05-21T11:38:20;4.67;;;3.33;;
7375;SDS011;3728;42.266;24.944;2023-05-21T11:40:52;14.50;;;3.50;;
7375;SDS011;3728;42.266;24.944;2023-05-21T11:43:21;7.30;;;3.50;;
7375;SDS011;3728;42.266;24.944;2023-05-21T11:45:48;7.00;;;3.10;;
7375;SDS011;3728;42.266;24.944;2023-05-21T11:48:24;7.93;;;3.53;;
7375;SDS011;3728;42.266;24.944;2023-05-21T11:50:57;6.33;;;3.30;;
7375;SDS011;3728;42.266;24.944;2023-05-21T11:53:24;4.93;;;3.40;;
7375;SDS011;3728;42.266;24.944;2023-05-21T11:55:54;7.93;;;3.70;;
7375;SDS011;3728;42.266;24.944;2023-05-21T11:58:43;6.53;;;3.57;;
7375;SDS011;3728;42.266;24.944;2023-05-21T12:01:20;6.83;;;3.50;;
7375;SDS011;3728;42.266;24.944;2023-05-21T12:03:52;5.13;;;3.40;;
7375;SDS011;3728;42.266;24.944;2023-05-21T12:06:25;10.03;;;3.10;;
7375;SDS011;3728;42.266;24.944;2023-05-21T12:08:53;6.70;;;3.63;;
7375;SDS011;3728;42.266;24.944;2023-05-21T12:11:23;6.00;;;3.43;;
7375;SDS011;3728;42.266;24.944;2023-05-21T12:13:53;7.67;;;3.37;;
7375;SDS011;3728;42.266;24.944;2023-05-21T12:16:22;7.60;;;3.87;;
7375;SDS011;3728;42.266;24.944;2023-05-21T12:18:50;5.70;;;3.50;;
7375;SDS011;3728;42.266;24.944;2023-05-21T12:21:18;11.97;;;3.67;;
7375;SDS011;3728;42.266;24.944;2023-05-21T12:23:46;9.93;;;3.55;;
7375;SDS011;3728;42.266;24.944;2023-05-21T12:26:14;8.30;;;3.43;;
7375;SDS011;3728;42.266;24.944;2023-05-21T12:28:41;8.90;;;3.85;;
7375;SDS011;3728;42.266;24.944;2023-05-21T12:31:13;7.30;;;3.23;;
7375;SDS011;3728;42.266;24.944;2023-05-21T12:33:44;7.13;;;3.77;;
7375;SDS011;3728;42.266;24.944;2023-05-21T12:36:29;10.00;;;3.53;;
7375;SDS011;3728;42.266;24.944;2023-05-21T12:38:57;4.97;;;3.07;;
7375;SDS011;3728;42.266;24.944;2023-05-21T12:41:26;6.53;;;3.22;;
7375;SDS011;3728;42.266;24.944;2023-05-21T12:43:56;4.43;;;3.22;;
7375;SDS011;3728;42.266;24.944;2023-05-21T12:46:23;7.05;;;3.55;;
7375;SDS011;3728;42.266;24.944;2023-05-21T12:48:52;7.72;;;2.95;;
7375;SDS011;3728;42.266;24.944;2023-05-21T12:51:21;5.18;;;3.05;;
7375;SDS011;3728;42.266;24.944;2023-05-21T12:53:50;4.32;;;3.08;;
7375;SDS011;3728;42.266;24.944;2023-05-21T12:56:18;12.48;;;3.72;;
7375;SDS011;3728;42.266;24.944;2023-05-21T12:58:48;6.80;;;3.17;;
7375;SDS011;3728;42.266;24.944;2023-05-21T13:01:16;7.85;;;3.03;;
7375;SDS011;3728;42.266;24.944;2023-05-21T13:03:46;7.05;;;3.65;;
7375;SDS011;3728;42.266;24.944;2023-05-21T13:06:16;8.63;;;3.30;;
7375;SDS011;3728;42.266;24.944;2023-05-21T13:08:43;5.15;;;3.20;;
7375;SDS011;3728;42.266;24.944;2023-05-21T13:11:11;4.38;;;2.95;;
7375;SDS011;3728;42.266;24.944;2023-05-21T13:13:39;3.85;;;3.13;;
7375;SDS011;3728;42.266;24.944;2023-05-21T13:16:06;4.20;;;3.00;;
7375;SDS011;3728;42.266;24.944;2023-05-21T13:18:36;5.93;;;3.30;;
7375;SDS011;3728;42.266;24.944;2023-05-21T13:21:03;5.60;;;3.35;;
7375;SDS011;3728;42.266;24.944;2023-05-21T13:23:32;7.90;;;3.25;;
7375;SDS011;3728;42.266;24.944;2023-05-21T13:25:59;4.03;;;2.90;;
7375;SDS011;3728;42.266;24.944;2023-05-21T13:28:27;7.65;;;4.57;;
7375;SDS011;3728;42.266;24.944;2023-05-21T13:30:55;16.38;;;5.72;;
7375;SDS011;3728;42.266;24.944;2023-05-21T13:33:22;4.10;;;3.15;;
7375;SDS011;3728;42.266;24.944;2023-05-21T13:35:50;7.40;;;3.45;;
7375;SDS011;3728;42.266;24.944;2023-05-21T13:38:17;9.48;;;2.90;;
7375;SDS011;3728;42.266;24.944;2023-05-21T13:40:45;7.72;;;3.50;;
7375;SDS011;3728;42.266;24.944;2023-05-21T13:43:13;8.32;;;3.33;;
7375;SDS011;3728;42.266;24.944;2023-05-21T13:45:40;6.65;;;3.00;;
7375;SDS011;3728;42.266;24.944;2023-05-21T13:48:09;8.13;;;3.53;;
7375;SDS011;3728;42.266;24.944;2023-05-21T13:50:37;5.50;;;3.20;;
7375;SDS011;3728;42.266;24.944;2023-05-21T13:53:04;5.80;;;3.50;;
7375;SDS011;3728;42.266;24.944;2023-05-21T13:55:32;8.73;;;3.65;;
7375;SDS011;3728;42.266;24.944;2023-05-21T13:58:02;8.75;;;3.80;;
7375;SDS011;3728;42.266;24.944;2023-05-21T14:00:29;7.88;;;3.13;;
7375;SDS011;3728;42.266;24.944;2023-05-21T14:02:57;6.38;;;3.58;;
7375;SDS011;3728;42.266;24.944;2023-05-21T14:05:25;5.15;;;3.65;;
7375;SDS011;3728;42.266;24.944;2023-05-21T14:07:54;4.45;;;3.20;;
7375;SDS011;3728;42.266;24.944;2023-05-21T14:10:23;11.07;;;3.40;;
7375;SDS011;3728;42.266;24.944;2023-05-21T14:12:51;8.85;;;3.47;;
7375;SDS011;3728;42.266;24.944;2023-05-21T14:15:24;4.25;;;2.92;;
7375;SDS011;3728;42.266;24.944;2023-05-21T14:17:52;7.47;;;2.97;;
7375;SDS011;3728;42.266;24.944;2023-05-21T14:20:20;7.15;;;3.28;;
7375;SDS011;3728;42.266;24.944;2023-05-21T14:22:47;5.38;;;3.47;;
7375;SDS011;3728;42.266;24.944;2023-05-21T14:25:15;5.15;;;3.13;;
7375;SDS011;3728;42.266;24.944;2023-05-21T14:27:42;6.65;;;3.40;;
7375;SDS011;3728;42.266;24.944;2023-05-21T14:30:10;5.63;;;3.28;;
7375;SDS011;3728;42.266;24.944;2023-05-21T14:32:37;3.83;;;3.40;;
7375;SDS011;3728;42.266;24.944;2023-05-21T14:35:06;6.63;;;4.20;;
7375;SDS011;3728;42.266;24.944;2023-05-21T14:37:33;7.93;;;4.45;;
7375;SDS011;3728;42.266;24.944;2023-05-21T14:40:01;8.93;;;4.25;;
7375;SDS011;3728;42.266;24.944;2023-05-21T14:42:33;14.02;;;4.55;;
7375;SDS011;3728;42.266;24.944;2023-05-21T14:45:02;13.45;;;4.40;;
7375;SDS011;3728;42.266;24.944;2023-05-21T14:47:44;4.63;;;3.58;;
7375;SDS011;3728;42.266;24.944;2023-05-21T14:50:13;5.47;;;3.55;;
7375;SDS011;3728;42.266;24.944;2023-05-21T14:52:42;5.40;;;3.33;;
7375;SDS011;3728;42.266;24.944;2023-05-21T14:55:10;4.55;;;3.15;;
7375;SDS011;3728;42.266;24.944;2023-05-21T14:57:39;4.68;;;3.35;;
7375;SDS011;3728;42.266;24.944;2023-05-21T15:00:06;13.02;;;4.13;;
7375;SDS011;3728;42.266;24.944;2023-05-21T15:02:35;6.82;;;3.40;;
7375;SDS011;3728;42.266;24.944;2023-05-21T15:05:03;6.72;;;3.65;;
7375;SDS011;3728;42.266;24.944;2023-05-21T15:07:33;7.68;;;3.70;;
7375;SDS011;3728;42.266;24.944;2023-05-21T15:10:00;3.70;;;3.22;;
7375;SDS011;3728;42.266;24.944;2023-05-21T15:12:28;7.55;;;3.80;;
7375;SDS011;3728;42.266;24.944;2023-05-21T15:14:58;6.75;;;3.70;;
7375;SDS011;3728;42.266;24.944;2023-05-21T15:17:25;7.68;;;3.58;;
7375;SDS011;3728;42.266;24.944;2023-05-21T15:19:53;5.13;;;3.20;;
7375;SDS011;3728;42.266;24.944;2023-05-21T15:22:21;6.18;;;3.70;;
7375;SDS011;3728;42.266;24.944;2023-05-21T15:24:49;6.28;;;3.80;;
7375;SDS011;3728;42.266;24.944;2023-05-21T15:27:16;7.63;;;3.83;;
7375;SDS011;3728;42.266;24.944;2023-05-21T15:29:44;6.65;;;3.55;;
7375;SDS011;3728;42.266;24.944;2023-05-21T15:32:12;8.80;;;3.60;;
7375;SDS011;3728;42.266;24.944;2023-05-21T15:34:40;6.22;;;3.63;;
7375;SDS011;3728;42.266;24.944;2023-05-21T15:37:07;8.80;;;3.33;;
7375;SDS011;3728;42.266;24.944;2023-05-21T15:39:41;7.10;;;4.35;;